Time;durP1;ratioP1;P1;durP2;ratioP2;P2;SDS_P1;SDS_P2;PMS_P1;PMS_P2;Temp;Humidity;BMP_temperature;BMP_pressure;BME280_temperature;BME280_humidity;BME280_pressure;Samples;Min_cycle;Max_cycle;Signal;HPM_P1;HPM_P2
2021/08/07 00:00:50;;;;;;;31.23;27.70;;;;;;;15.19;73.61;99356.38;2050030;85;28342;-66
2021/08/07 00:03:54;;;;;;;33.08;29.60;;;;;;;15.15;73.60;99354.92;2049061;86;27712;-66
2021/08/07 00:06:56;;;;;;;33.85;30.25;;;;;;;15.11;73.61;99356.66;2050411;86;31082;-66
2021/08/07 00:09:58;;;;;;;38.30;34.35;;;;;;;15.07;73.60;99357.89;2050682;86;32951;-66
2021/08/07 00:13:00;;;;;;;50.03;44.58;;;;;;;15.02;73.69;99360.51;2050303;86;29459;-65
2021/08/07 00:16:03;;;;;;;59.93;51.35;;;;;;;14.99;73.76;99354.49;2050661;86;27701;-65
2021/08/07 00:19:04;;;;;;;58.68;52.30;;;;;;;14.95;73.79;99355.75;2050652;86;28658;-65
2021/08/07 00:22:06;;;;;;;62.83;51.95;;;;;;;14.89;73.76;99351.73;2050493;86;32202;-65
2021/08/07 00:25:10;;;;;;;54.60;45.52;;;;;;;14.84;73.83;99348.05;2050470;86;33030;-65
2021/08/07 00:28:12;;;;;;;53.98;43.58;;;;;;;14.80;73.84;99354.70;2050399;86;30300;-65
2021/08/07 00:31:14;;;;;;;46.37;38.65;;;;;;;14.76;73.86;99354.58;2050353;86;27681;-65
2021/08/07 00:34:16;;;;;;;47.65;37.98;;;;;;;14.70;73.99;99351.91;2050433;86;29677;-65
2021/08/07 00:37:18;;;;;;;39.75;33.85;;;;;;;14.67;74.09;99357.52;2050470;86;31030;-65
2021/08/07 00:40:20;;;;;;;39.70;29.75;;;;;;;14.63;74.08;99354.70;2050537;86;32939;-65
2021/08/07 00:43:22;;;;;;;37.63;28.87;;;;;;;14.57;74.08;99358.75;2050296;86;29370;-66
2021/08/07 00:46:23;;;;;;;31.17;24.98;;;;;;;14.51;74.16;99357.89;2050702;86;27667;-66
2021/08/07 00:49:26;;;;;;;28.55;22.87;;;;;;;14.47;74.14;99357.80;2050484;86;28798;-65
2021/08/07 00:52:29;;;;;;;26.90;22.60;;;;;;;14.45;74.27;99353.02;2050128;86;31917;-65
2021/08/07 00:55:32;;;;;;;23.70;18.30;;;;;;;14.44;74.49;99351.31;2050502;86;33045;-66
2021/08/07 00:58:34;;;;;;;26.93;19.90;;;;;;;14.43;74.68;99360.37;2050424;86;30116;-65
2021/08/07 01:01:48;;;;;;;26.80;19.27;;;;;;;14.44;74.91;99348.11;2050348;85;27598;-65
2021/08/07 01:05:20;;;;;;;20.17;15.50;;;;;;;14.48;75.02;99353.25;2049388;86;28692;-66
2021/08/07 01:08:24;;;;;;;14.43;11.22;;;;;;;14.51;75.18;99351.16;2026352;87;30511;-66
2021/08/07 01:11:34;;;;;;;15.10;11.38;;;;;;;14.57;75.26;99361.45;2027765;87;33159;-66
2021/08/07 01:14:43;;;;;;;13.83;9.98;;;;;;;14.63;75.37;99369.52;2023637;87;29493;-66
2021/08/07 01:17:46;;;;;;;10.15;8.58;;;;;;;14.69;75.35;99367.72;2027988;87;27718;-66
2021/08/07 01:20:53;;;;;;;10.78;8.60;;;;;;;14.74;75.45;99369.52;2027514;87;28634;-66
2021/08/07 01:24:34;;;;;;;9.40;7.75;;;;;;;14.80;75.52;99371.35;2027764;87;32177;-66
2021/08/07 01:27:39;;;;;;;7.92;6.35;;;;;;;14.85;75.53;99379.93;2027792;87;33352;-65
2021/08/07 01:30:41;;;;;;;9.25;7.10;;;;;;;14.88;75.51;99368.39;2027844;87;29329;-65
2021/08/07 01:33:45;;;;;;;9.13;7.20;;;;;;;14.93;75.46;99364.47;2027937;87;27704;-66
2021/08/07 01:36:49;;;;;;;8.33;6.10;;;;;;;14.97;75.58;99372.67;2027863;87;29403;-66
2021/08/07 01:39:54;;;;;;;7.60;6.35;;;;;;;15.00;75.65;99373.27;2027695;87;31069;-66
2021/08/07 01:42:56;;;;;;;8.60;6.17;;;;;;;15.03;75.55;99370.31;1999921;87;33817;-65
2021/08/07 01:45:58;;;;;;;9.08;6.67;;;;;;;15.06;75.60;99367.84;2049199;86;29711;-65
2021/08/07 01:49:16;;;;;;;9.38;6.10;;;;;;;15.09;75.63;99372.12;2050501;86;27610;-66
2021/08/07 01:52:23;;;;;;;7.95;5.97;;;;;;;15.13;75.67;99377.16;2050503;86;29857;-65
2021/08/07 01:55:47;;;;;;;11.57;6.40;;;;;;;15.15;75.59;99375.16;2050050;86;32296;-66
2021/08/07 01:58:52;;;;;;;12.65;6.47;;;;;;;15.14;75.52;99377.48;2049822;86;34894;-66
2021/08/07 02:01:55;;;;;;;9.23;6.97;;;;;;;15.14;75.59;99377.48;2040196;86;30104;-66
2021/08/07 02:05:01;;;;;;;11.75;6.67;;;;;;;15.14;75.48;99372.59;2067116;86;27704;-65
2021/08/07 02:08:04;;;;;;;7.03;6.30;;;;;;;15.11;75.44;99371.02;2067128;86;28909;-66
2021/08/07 02:11:06;;;;;;;9.25;5.75;;;;;;;15.09;75.31;99363.55;2066937;86;31083;-67
2021/08/07 02:14:09;;;;;;;10.40;6.15;;;;;;;15.05;75.26;99367.48;2066718;86;33762;-66
2021/08/07 02:17:12;;;;;;;6.55;5.58;;;;;;;15.00;75.14;99361.60;2005919;87;29895;-66
2021/08/07 02:20:16;;;;;;;11.25;6.78;;;;;;;14.94;75.13;99364.83;2066999;86;27654;-66
2021/08/07 02:23:20;;;;;;;9.73;5.65;;;;;;;14.87;75.09;99372.06;2032129;87;29041;-66
2021/08/07 02:26:25;;;;;;;6.80;5.58;;;;;;;14.82;75.02;99377.48;2067045;86;31685;-66
2021/08/07 02:29:30;;;;;;;12.10;5.87;;;;;;;14.73;75.05;99375.05;2040487;86;33050;-66
2021/08/07 02:32:32;;;;;;;6.62;5.17;;;;;;;14.67;75.10;99372.81;2031510;87;30544;-67
2021/08/07 02:35:35;;;;;;;8.30;6.42;;;;;;;14.58;75.01;99371.72;2066804;86;27750;-67
2021/08/07 02:38:39;;;;;;;7.50;6.53;;;;;;;14.52;75.03;99373.59;2066647;86;28681;-68
2021/08/07 02:41:44;;;;;;;7.12;5.40;;;;;;;14.43;75.07;99375.19;2040226;86;29189;-68
2021/08/07 02:44:47;;;;;;;7.65;5.35;;;;;;;14.36;75.15;99388.30;2031330;87;33106;-67
2021/08/07 02:47:50;;;;;;;8.85;5.80;;;;;;;14.29;75.10;99383.03;2066823;86;29331;-68
2021/08/07 02:50:54;;;;;;;10.35;7.05;;;;;;;14.24;75.16;99386.57;2066711;86;27760;-67
2021/08/07 02:53:58;;;;;;;7.70;6.22;;;;;;;14.18;75.27;99387.08;2031684;87;32469;-67
2021/08/07 02:57:03;;;;;;;11.30;6.78;;;;;;;14.08;75.29;99379.71;2066526;86;31148;-68
2021/08/07 03:00:08;;;;;;;8.15;6.33;;;;;;;14.07;75.35;99392.81;2065123;86;32986;-68
2021/08/07 03:03:11;;;;;;;8.58;6.12;;;;;;;14.01;75.40;99387.92;2028685;87;29607;-67
2021/08/07 03:06:13;;;;;;;7.78;6.00;;;;;;;13.95;75.37;99386.58;2064008;86;27658;-67
2021/08/07 03:09:15;;;;;;;9.00;6.12;;;;;;;13.89;75.42;99383.52;2064096;86;29063;-68
2021/08/07 03:12:17;;;;;;;12.73;6.75;;;;;;;13.85;75.48;99383.37;2028571;87;31077;-67
2021/08/07 03:15:23;;;;;;;14.00;6.80;;;;;;;13.80;75.59;99382.40;2063608;86;33975;-68
2021/08/07 03:18:29;;;;;;;6.90;6.20;;;;;;;13.76;75.67;99391.17;2063775;86;30147;-68
2021/08/07 03:21:31;;;;;;;;;;;;;;;13.73;75.76;99390.56;2066781;86;27744;-68
2021/08/07 03:24:33;;;;;;;7.30;5.95;;;;;;;13.70;75.88;99393.02;2064257;86;28770;-67
2021/08/07 03:27:35;;;;;;;11.30;6.12;;;;;;;13.65;75.80;99400.08;2029205;87;31055;-68
2021/08/07 03:30:38;;;;;;;9.03;6.80;;;;;;;13.62;75.80;99398.13;2063906;86;33856;-68
2021/08/07 03:33:43;;;;;;;7.05;5.67;;;;;;;13.60;75.94;99398.72;2063908;86;30354;-67
2021/08/07 03:36:45;;;;;;;11.12;6.45;;;;;;;13.59;75.97;99401.92;2028894;87;27712;-68
2021/08/07 03:39:47;;;;;;;10.32;6.35;;;;;;;13.58;76.05;99398.86;2064254;86;29519;-68
2021/08/07 03:42:50;;;;;;;8.08;6.10;;;;;;;13.59;76.16;99405.95;2064193;86;32117;-68
2021/08/07 03:45:52;;;;;;;7.90;6.65;;;;;;;13.60;76.20;99404.98;2028704;87;33873;-67
2021/08/07 03:48:54;;;;;;;8.43;6.60;;;;;;;13.61;76.26;99403.13;2064428;86;30086;-66
2021/08/07 03:51:56;;;;;;;11.43;6.75;;;;;;;13.63;76.28;99403.88;2064349;86;27729;-66
2021/08/07 03:54:58;;;;;;;7.70;6.22;;;;;;;13.66;76.36;99403.14;2029065;87;28691;-66
2021/08/07 03:58:01;;;;;;;11.35;6.50;;;;;;;13.70;76.40;99404.26;2064035;86;31236;-66
2021/08/07 04:01:03;;;;;;;10.90;6.90;;;;;;;13.75;76.44;99408.81;2062456;86;32985;-66
2021/08/07 04:04:06;;;;;;;9.98;6.35;;;;;;;13.80;76.46;99409.32;2056358;86;29580;-66
2021/08/07 04:07:08;;;;;;;9.20;6.75;;;;;;;13.86;76.50;99414.71;2056474;86;27753;-66
2021/08/07 04:10:12;;;;;;;8.18;6.58;;;;;;;13.91;76.44;99417.41;2056317;86;29486;-66
2021/08/07 04:13:14;;;;;;;8.78;6.53;;;;;;;13.97;76.53;99410.21;2056409;86;31099;-66
2021/08/07 04:16:17;;;;;;;10.28;6.47;;;;;;;14.04;76.55;99415.97;2056137;86;33252;-66
2021/08/07 04:19:19;;;;;;;9.25;6.65;;;;;;;14.11;76.61;99413.14;2055879;86;29384;-67
2021/08/07 04:22:22;;;;;;;10.45;7.35;;;;;;;14.19;76.67;99409.84;2056423;86;27612;-68
2021/08/07 04:25:24;;;;;;;10.45;7.12;;;;;;;14.27;76.76;99424.92;2056177;86;28865;-68
2021/08/07 04:28:27;;;;;;;14.00;8.30;;;;;;;14.37;76.83;99425.05;2056330;86;31026;-67
2021/08/07 04:31:30;;;;;;;10.00;7.75;;;;;;;14.49;76.94;99419.65;2056086;86;33816;-68
2021/08/07 04:34:35;;;;;;;11.40;8.78;;;;;;;14.59;76.99;99416.56;2056066;86;29228;-67
2021/08/07 04:37:53;;;;;;;10.80;8.58;;;;;;;14.70;76.94;99417.95;2056257;86;28346;-67
2021/08/07 04:40:56;;;;;;;10.25;8.88;;;;;;;14.82;77.00;99419.28;2056332;86;28826;-67
2021/08/07 04:43:58;;;;;;;9.78;8.65;;;;;;;14.95;77.09;99415.09;2056429;86;31845;-69
2021/08/07 04:47:00;;;;;;;8.98;8.13;;;;;;;15.08;77.09;99418.95;2055978;86;33023;-69
2021/08/07 04:50:05;;;;;;;10.65;7.80;;;;;;;15.22;77.19;99421.39;2056030;86;29560;-68
2021/08/07 04:53:07;;;;;;;12.73;7.47;;;;;;;15.38;77.28;99416.05;2056400;86;27687;-69
2021/08/07 04:56:09;;;;;;;11.53;7.70;;;;;;;15.57;77.20;99418.05;2056286;86;29485;-68
2021/08/07 04:59:11;;;;;;;12.20;8.33;;;;;;;15.82;77.28;99421.33;2056206;86;31070;-68
2021/08/07 05:02:13;;;;;;;9.38;8.10;;;;;;;16.44;77.96;99416.03;2059413;86;33135;-68
2021/08/07 05:05:17;;;;;;;15.08;7.42;;;;;;;17.37;78.01;99417.19;2061273;86;29371;-68
2021/08/07 05:08:20;;;;;;;10.67;7.10;;;;;;;18.24;77.18;99404.52;2061653;86;27717;-68
2021/08/07 05:11:22;;;;;;;11.90;5.45;;;;;;;19.21;76.05;99417.25;2061402;86;28825;-68
2021/08/07 05:14:24;;;;;;;11.03;5.65;;;;;;;20.00;74.69;99422.05;2061266;86;31091;-68
2021/08/07 05:17:27;;;;;;;5.75;4.72;;;;;;;20.61;73.49;99413.88;2060987;86;33073;-68
2021/08/07 05:20:29;;;;;;;7.75;5.17;;;;;;;21.12;72.34;99411.17;2061049;86;29403;-67
2021/08/07 05:23:31;;;;;;;4.25;3.90;;;;;;;21.53;71.56;99416.70;2061509;86;27625;-67
2021/08/07 05:26:32;;;;;;;6.40;3.62;;;;;;;21.87;70.61;99416.73;2061556;86;28698;-68
2021/08/07 05:29:34;;;;;;;4.92;3.10;;;;;;;22.18;69.69;99415.48;2061405;86;31815;-67
2021/08/07 05:32:37;;;;;;;3.77;3.20;;;;;;;22.43;69.19;99419.03;2061267;86;33102;-68
2021/08/07 05:35:38;;;;;;;5.20;2.87;;;;;;;22.69;68.22;99423.89;2061310;86;29414;-68
2021/08/07 05:38:40;;;;;;;3.92;3.00;;;;;;;22.90;67.78;99433.70;2061521;86;27630;-67
2021/08/07 05:41:42;;;;;;;4.25;2.92;;;;;;;23.12;67.33;99431.20;2061339;86;28637;-67
2021/08/07 05:44:44;;;;;;;3.60;3.00;;;;;;;23.34;66.65;99427.33;2061305;86;31003;-66
2021/08/07 05:47:46;;;;;;;4.00;3.02;;;;;;;23.57;66.15;99436.06;2061380;86;32430;-67
2021/08/07 05:50:48;;;;;;;5.92;2.58;;;;;;;23.78;65.48;99432.64;2061238;86;29319;-67
2021/08/07 05:53:52;;;;;;;5.95;2.70;;;;;;;24.04;65.05;99435.55;2061166;86;28250;-66
2021/08/07 05:56:55;;;;;;;3.37;3.08;;;;;;;24.23;64.09;99437.75;2061167;86;28717;-68
2021/08/07 05:59:57;;;;;;;3.70;2.22;;;;;;;24.46;63.55;99438.17;2061213;86;31064;-69
2021/08/07 06:02:59;;;;;;;2.70;2.30;;;;;;;24.70;62.34;99443.08;2065943;86;33810;-68
2021/08/07 06:06:02;;;;;;;4.47;2.12;;;;;;;24.88;62.01;99439.94;2067369;86;29479;-68
2021/08/07 06:09:04;;;;;;;8.08;2.00;;;;;;;25.16;61.46;99440.08;2067698;86;27904;-67
2021/08/07 06:12:06;;;;;;;2.77;2.25;;;;;;;25.48;60.72;99446.16;2067645;86;28671;-67
2021/08/07 06:15:09;;;;;;;2.05;1.82;;;;;;;25.89;60.45;99440.52;2067037;86;31912;-67
2021/08/07 06:18:11;;;;;;;2.67;2.20;;;;;;;26.35;59.42;99441.97;2067667;86;32982;-67
2021/08/07 06:21:13;;;;;;;2.45;2.05;;;;;;;26.79;58.94;99448.66;2067711;86;30108;-67
2021/08/07 06:24:15;;;;;;;4.30;2.12;;;;;;;27.26;58.13;99448.35;2067674;86;27644;-67
2021/08/07 06:27:17;;;;;;;3.75;1.50;;;;;;;27.80;57.46;99439.41;2067627;86;28656;-67
2021/08/07 06:30:19;;;;;;;2.60;1.67;;;;;;;28.37;56.12;99445.34;2067534;86;31229;-68
2021/08/07 06:33:21;;;;;;;3.87;1.77;;;;;;;28.94;55.48;99448.92;2067649;86;32946;-68
2021/08/07 06:36:22;;;;;;;2.67;1.60;;;;;;;29.44;54.29;99445.54;2067558;86;29364;-68
2021/08/07 06:39:24;;;;;;;3.58;2.10;;;;;;;29.85;52.67;99448.32;2067752;86;27661;-69
2021/08/07 06:42:26;;;;;;;2.00;1.90;;;;;;;30.27;51.70;99449.72;2067536;86;28610;-66
2021/08/07 06:45:28;;;;;;;2.12;1.70;;;;;;;30.52;50.56;99455.20;2059947;86;31036;-65
2021/08/07 06:48:32;;;;;;;2.95;1.90;;;;;;;30.92;49.56;99464.45;2052750;86;33885;-63
2021/08/07 06:51:34;;;;;;;2.08;1.90;;;;;;;31.19;49.44;99461.92;2062283;85;29353;-65
2021/08/07 06:54:39;;;;;;;3.00;2.33;;;;;;;31.37;47.43;99462.41;2066912;86;27567;-69
2021/08/07 06:57:42;;;;;;;4.78;2.10;;;;;;;31.52;47.13;99457.85;2066532;86;28683;-66
2021/08/07 07:00:44;;;;;;;2.65;1.92;;;;;;;31.79;46.76;99454.17;2066607;85;32039;-67
2021/08/07 07:03:48;;;;;;;2.35;1.85;;;;;;;32.12;45.73;99462.48;1998442;87;33788;-67
2021/08/07 07:06:51;;;;;;;2.95;1.60;;;;;;;32.30;45.54;99463.49;2037976;87;29583;-71
2021/08/07 07:09:57;;;;;;;3.87;1.70;;;;;;;32.50;43.83;99468.66;2035944;87;27642;-68
2021/08/07 07:13:03;;;;;;;1.65;1.52;;;;;;;32.67;44.29;99466.55;2037107;87;29835;-68
2021/08/07 07:16:06;;;;;;;1.72;1.60;;;;;;;32.94;43.84;99472.44;2037967;87;31175;-65
2021/08/07 07:19:08;;;;;;;3.75;1.67;;;;;;;33.30;43.04;99469.02;2038228;87;34194;-70
2021/08/07 07:22:09;;;;;;;2.67;1.95;;;;;;;33.53;42.05;99463.64;2038153;87;30501;-68
2021/08/07 07:25:14;;;;;;;1.77;1.40;;;;;;;33.70;41.47;99465.91;2038202;87;27860;-67
2021/08/07 07:28:15;;;;;;;2.55;1.82;;;;;;;33.77;40.94;99463.80;2038526;87;28670;-71
2021/08/07 07:31:17;;;;;;;2.08;1.77;;;;;;;33.90;40.83;99464.62;2038341;87;31405;-66
2021/08/07 07:34:19;;;;;;;2.62;1.35;;;;;;;34.06;40.05;99462.39;2038298;87;33186;-68
2021/08/07 07:37:21;;;;;;;2.30;1.95;;;;;;;34.19;40.17;99458.97;2038590;87;30131;-68
2021/08/07 07:40:22;;;;;;;3.83;1.60;;;;;;;34.43;39.73;99469.92;2037762;87;27609;-70
2021/08/07 07:43:26;;;;;;;2.87;1.57;;;;;;;34.47;37.86;99466.93;2038622;87;28730;-68
2021/08/07 07:46:28;;;;;;;1.62;1.50;;;;;;;34.23;37.24;99465.16;2038698;87;31230;-69
2021/08/07 07:49:30;;;;;;;1.70;1.60;;;;;;;34.14;37.83;99474.17;2038684;87;33036;-69
2021/08/07 07:52:31;;;;;;;1.77;1.62;;;;;;;34.19;37.47;99472.88;2038636;87;29347;-69
2021/08/07 07:55:34;;;;;;;3.47;1.40;;;;;;;34.09;37.32;99463.25;2038751;87;27881;-66
2021/08/07 07:58:36;;;;;;;1.85;1.37;;;;;;;34.16;37.20;99473.38;2038766;87;28660;-67
2021/08/07 08:01:38;;;;;;;2.72;1.80;;;;;;;34.17;36.73;99470.33;2037114;87;32154;-69
2021/08/07 08:04:42;;;;;;;1.62;1.40;;;;;;;34.15;36.51;99472.55;2008626;87;29580;-61
2021/08/07 08:07:44;;;;;;;2.70;1.90;;;;;;;33.87;36.28;99472.86;2029379;87;30515;-60
2021/08/07 08:10:46;;;;;;;2.00;1.80;;;;;;;33.42;36.93;99471.79;2029098;87;27774;-60
2021/08/07 08:13:48;;;;;;;2.58;2.10;;;;;;;33.40;37.37;99472.58;2029359;87;29544;-61
2021/08/07 08:16:51;;;;;;;1.87;1.65;;;;;;;33.42;36.70;99468.16;2030429;86;32253;-60
2021/08/07 08:19:53;;;;;;;1.83;1.43;;;;;;;32.88;36.39;99475.66;2029452;87;34190;-61
2021/08/07 08:22:55;;;;;;;1.67;1.57;;;;;;;32.32;36.39;99475.19;2029707;87;29661;-60
2021/08/07 08:26:00;;;;;;;3.00;1.20;;;;;;;31.79;36.65;99469.94;2029447;87;27730;-61
2021/08/07 08:29:04;;;;;;;3.47;1.60;;;;;;;31.57;36.82;99468.22;2028830;87;28712;-63
2021/08/07 08:32:07;;;;;;;3.87;1.60;;;;;;;31.35;37.54;99472.35;2044209;86;30916;-62
2021/08/07 08:35:10;;;;;;;1.70;1.35;;;;;;;31.50;38.21;99476.09;2048000;86;32980;-60
2021/08/07 08:38:12;;;;;;;2.12;1.70;;;;;;;31.94;37.73;99473.09;2049395;86;29502;-63
2021/08/07 08:41:16;;;;;;;2.00;1.55;;;;;;;32.25;36.87;99477.19;2049074;86;27648;-64
2021/08/07 08:44:22;;;;;;;1.50;1.40;;;;;;;32.27;37.07;99481.98;2049030;86;30691;-65
2021/08/07 08:47:25;;;;;;;1.72;1.52;;;;;;;32.03;37.09;99478.31;2048579;86;31078;-63
2021/08/07 08:50:30;;;;;;;3.33;1.60;;;;;;;32.21;37.98;99474.58;2051503;86;32987;-66
2021/08/07 08:53:34;;;;;;;2.00;1.40;;;;;;;32.62;37.83;99481.14;2061642;86;29345;-66
2021/08/07 08:56:37;;;;;;;2.95;1.57;;;;;;;32.85;37.46;99476.14;2062139;86;27732;-61
2021/08/07 08:59:39;;;;;;;1.77;1.50;;;;;;;33.11;37.34;99471.11;2063060;86;29545;-62
2021/08/07 09:02:42;;;;;;;2.35;1.37;;;;;;;33.20;36.46;99480.46;2066054;84;31219;-60
2021/08/07 09:05:44;;;;;;;2.62;1.50;;;;;;;32.79;36.33;99484.00;2072710;85;32632;-61
2021/08/07 09:09:10;;;;;;;1.62;1.50;;;;;;;32.76;37.19;99485.91;2072118;85;30171;-61
2021/08/07 09:12:14;;;;;;;1.52;1.40;;;;;;;32.92;37.21;99483.50;2072451;85;27720;-60
2021/08/07 09:15:36;;;;;;;2.37;1.37;;;;;;;32.99;37.07;99479.50;2072629;85;28840;-61
2021/08/07 09:18:39;;;;;;;3.20;1.85;;;;;;;33.06;36.90;99473.81;2072603;85;31080;-62
2021/08/07 09:21:41;;;;;;;3.05;1.57;;;;;;;32.96;36.97;99473.05;2072082;85;33816;-62
2021/08/07 09:25:08;;;;;;;2.30;1.35;;;;;;;32.94;36.71;99466.03;2072065;85;29488;-61
2021/08/07 09:28:10;;;;;;;2.00;1.60;;;;;;;33.03;36.81;99465.41;2072973;85;27592;-61
2021/08/07 09:31:14;;;;;;;1.77;1.20;;;;;;;33.18;36.76;99462.64;2072232;85;29570;-61
2021/08/07 09:34:20;;;;;;;;;;;;;;;33.31;36.65;99460.13;2075034;85;31857;-61
2021/08/07 09:37:22;;;;;;;2.98;1.35;;;;;;;33.46;36.29;99458.24;2072367;85;32956;-61
2021/08/07 09:40:26;;;;;;;1.55;1.45;;;;;;;33.50;36.33;99458.05;2072093;85;30515;-61
2021/08/07 09:43:42;;;;;;;1.52;1.42;;;;;;;33.46;35.68;99454.91;2045808;85;27727;-61
2021/08/07 09:46:44;;;;;;;1.70;1.40;;;;;;;33.40;36.05;99448.98;2070245;85;29606;-62
2021/08/07 09:49:47;;;;;;;1.60;1.45;;;;;;;33.35;35.14;99448.84;2071296;85;32227;-63
2021/08/07 09:52:49;;;;;;;3.30;1.70;;;;;;;33.16;34.95;99446.81;2072006;85;33739;-61
2021/08/07 09:56:05;;;;;;;1.60;1.50;;;;;;;32.94;34.98;99466.89;2072217;85;30519;-61
2021/08/07 09:59:10;;;;;;;1.75;1.57;;;;;;;32.74;34.85;99461.72;2072506;85;27671;-61
2021/08/07 10:02:26;;;;;;;2.12;1.57;;;;;;;32.48;34.89;99463.07;2072247;85;28840;-61
2021/08/07 10:05:29;;;;;;;1.60;1.50;;;;;;;32.25;34.62;99471.12;2070500;86;32090;-60
2021/08/07 10:08:36;;;;;;;2.95;1.70;;;;;;;31.99;34.92;99459.94;2070534;86;34222;-60
2021/08/07 10:11:44;;;;;;;2.00;1.80;;;;;;;31.62;34.97;99466.42;2068572;86;29517;-61
2021/08/07 10:14:47;;;;;;;4.30;1.30;;;;;;;31.24;35.33;99471.77;2065197;86;27792;-61
2021/08/07 10:17:50;;;;;;;4.80;1.70;;;;;;;30.83;35.32;99471.91;2070835;86;29488;-61
2021/08/07 10:20:52;;;;;;;2.02;1.77;;;;;;;30.40;35.93;99470.83;2070961;85;31043;-60
2021/08/07 10:23:56;;;;;;;2.90;1.40;;;;;;;30.14;36.32;99468.63;2070528;86;34192;-61
2021/08/07 10:26:58;;;;;;;1.80;1.62;;;;;;;29.90;36.42;99468.34;2070714;86;35246;-60
2021/08/07 10:30:03;;;;;;;3.42;1.67;;;;;;;29.61;36.99;99472.61;2044355;86;27719;-60
2021/08/07 10:33:06;;;;;;;3.75;1.55;;;;;;;29.27;37.43;99465.85;2070865;86;28156;-60
2021/08/07 10:36:08;;;;;;;1.67;1.55;;;;;;;29.14;37.83;99461.23;2070842;86;31689;-60
2021/08/07 10:39:11;;;;;;;2.60;1.65;;;;;;;28.95;38.03;99468.53;2070748;86;57286;-61
2021/08/07 10:42:14;;;;;;;2.08;1.87;;;;;;;28.84;38.23;99470.59;2070718;86;30547;-60
2021/08/07 10:45:17;;;;;;;1.60;1.50;;;;;;;28.73;38.28;99475.70;2044273;86;27668;-67
2021/08/07 10:48:41;;;;;;;1.57;1.47;;;;;;;28.74;38.90;99471.05;2070612;86;28682;-65
2021/08/07 10:51:43;;;;;;;1.70;1.50;;;;;;;28.67;38.86;99465.52;2070703;86;30798;-65
2021/08/07 10:54:45;;;;;;;3.42;1.90;;;;;;;28.56;38.94;99468.41;2070367;86;33828;-64
2021/08/07 10:57:51;;;;;;;1.75;1.60;;;;;;;28.39;38.84;99465.23;2069561;85;30002;-68
2021/08/07 11:00:53;;;;;;;1.70;1.55;;;;;;;28.19;38.87;99459.75;2070493;86;27736;-66
2021/08/07 11:04:07;;;;;;;6.28;1.80;;;;;;;27.97;38.93;99462.68;2041797;86;29311;-66
2021/08/07 11:07:20;;;;;;;3.60;1.52;;;;;;;27.77;39.63;99459.92;2032332;87;31059;-66
2021/08/07 11:10:29;;;;;;;1.80;1.70;;;;;;;27.73;40.03;99449.00;2033296;87;32995;-63
2021/08/07 11:13:32;;;;;;;1.87;1.60;;;;;;;27.70;39.62;99439.82;2036477;87;29723;-63
2021/08/07 11:16:35;;;;;;;2.92;1.47;;;;;;;27.67;39.54;99431.44;2028644;87;27671;-64
2021/08/07 11:20:05;;;;;;;2.95;1.70;;;;;;;27.66;39.73;99435.24;1999038;87;29514;-69
2021/08/07 11:23:10;;;;;;;2.77;1.70;;;;;;;27.59;39.82;99428.90;1999631;89;31929;-69
2021/08/07 11:26:14;;;;;;;3.20;1.90;;;;;;;27.55;40.59;99420.73;1999831;88;32970;-70
2021/08/07 11:29:17;;;;;;;3.22;1.95;;;;;;;27.56;40.39;99422.44;2035640;87;37379;-68
2021/08/07 11:32:20;;;;;;;2.42;1.70;;;;;;;27.57;40.62;99420.00;2037152;87;27611;-72
2021/08/07 11:35:57;;;;;;;2.70;1.85;;;;;;;27.61;41.10;99425.41;2036098;87;30791;-68
2021/08/07 11:39:05;;;;;;;1.98;1.82;;;;;;;27.60;40.72;99429.22;1939526;90;27926;-70
2021/08/07 11:42:40;;;;;;;2.30;1.57;;;;;;;27.59;41.11;99431.11;1968632;90;29660;-70
2021/08/07 11:45:42;;;;;;;5.15;2.30;;;;;;;27.63;41.07;99423.81;1935370;91;29508;-70
2021/08/07 11:48:49;;;;;;;3.37;2.37;;;;;;;27.64;40.72;99426.89;1944854;91;27683;-82
2021/08/07 11:51:53;;;;;;;2.58;1.90;;;;;;;27.63;40.50;99424.68;1944723;90;28847;-66
2021/08/07 11:54:56;;;;;;;2.22;1.70;;;;;;;27.71;40.74;99422.25;1967243;90;31056;-67
2021/08/07 11:58:08;;;;;;;2.02;1.87;;;;;;;27.80;40.45;99423.73;1946567;90;33769;-71
2021/08/07 12:01:24;;;;;;;2.02;1.65;;;;;;;27.91;40.55;99405.73;1966885;90;29385;-71
2021/08/07 12:04:27;;;;;;;1.72;1.37;;;;;;;27.97;40.22;99404.03;1970279;89;27863;-69
2021/08/07 12:07:34;;;;;;;1.65;1.45;;;;;;;28.01;40.29;99411.65;1993863;89;28863;-73
2021/08/07 12:10:57;;;;;;;3.77;1.37;;;;;;;28.06;40.21;99412.38;2015790;88;31078;-74
2021/08/07 12:14:07;;;;;;;2.25;1.32;;;;;;;28.05;39.46;99410.17;2000330;88;32978;-73
2021/08/07 12:17:12;;;;;;;4.37;1.37;;;;;;;27.98;39.55;99405.73;1964984;89;29344;-70
2021/08/07 12:20:14;;;;;;;2.95;1.50;;;;;;;27.88;39.66;99410.28;1995702;89;27827;-67
2021/08/07 12:23:16;;;;;;;2.22;1.80;;;;;;;27.79;39.35;99402.77;2025451;86;28664;-71
2021/08/07 12:26:20;;;;;;;4.67;1.72;;;;;;;27.67;39.05;99408.59;2051534;86;31204;-70
2021/08/07 12:29:25;;;;;;;1.65;1.40;;;;;;;27.55;39.65;99402.31;2009258;86;33764;-70
2021/08/07 12:32:27;;;;;;;1.70;1.60;;;;;;;27.47;39.83;99403.07;2020412;88;29548;-69
2021/08/07 12:35:30;;;;;;;2.02;1.92;;;;;;;27.40;39.52;99410.73;2059913;86;27818;-69
2021/08/07 12:38:32;;;;;;;3.30;1.80;;;;;;;27.41;40.22;99404.70;2007008;87;29839;-71
2021/08/07 12:41:34;;;;;;;1.90;1.70;;;;;;;27.47;40.37;99404.45;2037723;86;31879;-72
2021/08/07 12:44:37;;;;;;;2.02;1.77;;;;;;;27.51;39.99;99403.81;2028320;86;32946;-75
2021/08/07 12:47:38;;;;;;;2.45;1.70;;;;;;;27.62;40.01;99409.23;2012714;87;30172;-72
2021/08/07 12:50:40;;;;;;;3.10;1.60;;;;;;;27.65;39.56;99403.28;2010073;86;27697;-70
2021/08/07 12:53:46;;;;;;;7.00;2.42;;;;;;;27.67;39.98;99396.20;2012537;86;29603;-76
2021/08/07 12:56:48;;;;;;;3.80;2.85;;;;;;;27.63;39.78;99399.05;2034896;86;31119;-72
2021/08/07 12:59:55;;;;;;;4.92;2.00;;;;;;;27.59;40.48;99400.02;2048285;86;33768;-69
2021/08/07 13:03:05;;;;;;;3.62;1.60;;;;;;;27.61;40.44;99399.28;2033971;86;29492;-75
2021/08/07 13:06:08;;;;;;;2.37;2.10;;;;;;;27.62;40.34;99386.34;2034451;86;27709;-75
2021/08/07 13:09:26;;;;;;;3.92;2.17;;;;;;;27.58;39.50;99381.27;2062751;84;28694;-72
2021/08/07 13:12:33;;;;;;;5.72;2.22;;;;;;;27.51;39.94;99379.05;2034265;86;31040;-70
2021/08/07 13:15:40;;;;;;;3.87;2.52;;;;;;;27.48;39.78;99388.23;2034306;86;32934;-69
2021/08/07 13:18:42;;;;;;;4.83;2.35;;;;;;;27.35;39.83;99385.75;2022973;86;29686;-71
2021/08/07 13:21:44;;;;;;;2.95;2.20;;;;;;;27.22;39.76;99387.11;2061457;84;27749;-73
2021/08/07 13:24:58;;;;;;;2.20;1.75;;;;;;;27.09;39.85;99380.53;2064883;84;28632;-71
2021/08/07 13:28:16;;;;;;;2.27;1.57;;;;;;;27.05;40.16;99376.48;2024805;86;34738;-71
2021/08/07 13:31:30;;;;;;;4.95;1.90;;;;;;;27.05;40.53;99372.91;2009717;86;33035;-72
2021/08/07 13:34:32;;;;;;;4.60;1.97;;;;;;;27.11;40.69;99377.05;2044587;86;29370;-73
2021/08/07 13:37:34;;;;;;;5.17;1.70;;;;;;;27.08;39.77;99380.72;2038157;86;27887;-72
2021/08/07 13:40:36;;;;;;;1.98;1.50;;;;;;;27.07;40.87;99381.26;2041880;86;28655;-76
2021/08/07 13:43:39;;;;;;;3.20;1.60;;;;;;;27.22;40.93;99371.44;2039551;86;31175;-70
2021/08/07 13:46:41;;;;;;;5.37;2.05;;;;;;;27.33;40.74;99378.23;2042001;86;33021;-70
2021/08/07 13:49:43;;;;;;;2.05;1.60;;;;;;;27.41;40.71;99377.19;2037399;86;30092;-69
2021/08/07 13:52:45;;;;;;;2.70;1.80;;;;;;;27.46;40.75;99376.61;2025198;86;27756;-66
2021/08/07 13:55:47;;;;;;;1.47;1.37;;;;;;;27.41;40.82;99376.67;2071074;84;29519;-71
2021/08/07 13:58:49;;;;;;;2.33;1.30;;;;;;;27.29;40.52;99383.31;2018723;86;31872;-69
2021/08/07 14:01:51;;;;;;;2.92;1.32;;;;;;;27.20;40.62;99384.58;2045125;85;32943;-67
2021/08/07 14:04:53;;;;;;;3.70;1.30;;;;;;;27.10;40.68;99386.34;2060703;85;29310;-67
2021/08/07 14:07:54;;;;;;;3.33;1.77;;;;;;;27.04;40.76;99395.95;2083399;84;27700;-70
2021/08/07 14:10:56;;;;;;;2.35;1.62;;;;;;;27.02;40.97;99396.14;2069315;84;28951;-69
2021/08/07 14:13:58;;;;;;;1.62;1.32;;;;;;;27.06;41.31;99391.94;2069063;84;30862;-68
2021/08/07 14:17:00;;;;;;;4.03;2.10;;;;;;;27.14;41.17;99395.85;2083303;84;33024;-63
2021/08/07 14:20:05;;;;;;;2.17;1.47;;;;;;;27.24;41.23;99389.96;2033877;86;30189;-63
2021/08/07 14:23:08;;;;;;;6.22;1.32;;;;;;;27.34;40.72;99382.69;2064665;84;27600;-62
2021/08/07 14:26:10;;;;;;;3.42;1.35;;;;;;;27.36;40.77;99390.20;2079186;84;29672;-64